Time,TemperatureF,DewpointF,PressureIn,WindDirection,WindDirectionDegrees,WindSpeedMPH,WindSpeedGustMPH,Humidity,HourlyPrecipIn,Conditions,Clouds,dailyrainin,SoftwareType,DateUTC
2013-02-25 00:02:00,22.8,16.1,29.76,SW,225,0.0,0.0,75,0.00,,,0.00,LWC V2.10 B1813,2013-02-25 07:02:00,
2013-02-25 00:07:00,22.6,15.6,29.76,SW,225,0.0,0.0,74,0.00,,,0.00,LWC V2.10 B1813,2013-02-25 07:07:00,
2013-02-25 00:12:00,22.3,14.9,29.76,SW,225,0.0,0.0,73,0.00,,,0.00,LWC V2.10 B1813,2013-02-25 07:12:00,
2013-02-25 00:17:00,22.1,14.7,29.76,WSW,247,0.0,0.0,73,0.00,,,0.00,LWC V2.10 B1813,2013-02-25 07:17:00,
2013-02-25 00:22:00,21.7,14.4,29.76,WSW,247,0.0,0.0,73,0.00,,,0.00,LWC V2.10 B1813,2013-02-25 07:22:00,
2013-02-25 00:27:00,21.2,13.5,29.76,WSW,247,0.0,0.0,72,0.00,,,0.00,LWC V2.10 B1813,2013-02-25 07:27:00,
2013-02-25 00:32:00,20.8,13.2,29.76,WSW,247,0.0,0.0,72,0.00,,,0.00,LWC V2.10 B1813,2013-02-25 07:32:00,
2013-02-25 00:37:00,20.1,12.5,29.77,NW,315,0.0,0.0,72,0.00,,,0.00,LWC V2.10 B1813,2013-02-25 07:37:00,
2013-02-25 00:42:00,19.9,12.3,29.77,NW,315,0.0,0.0,72,0.00,,,0.00,LWC V2.10 B1813,2013-02-25 07:42:00,
2013-02-25 00:47:00,19.6,11.9,29.77,NW,315,0.0,0.0,72,0.00,,,0.00,LWC V2.10 B1813,2013-02-25 07:47:00,
2013-02-25 00:52:00,19.2,11.6,29.78,WSW,247,0.0,0.0,72,0.00,,,0.00,LWC V2.10 B1813,2013-02-25 07:52:00,
2013-02-25 00:57:00,19.2,11.6,29.78,SW,225,0.0,0.0,72,0.00,,,0.00,LWC V2.10 B1813,2013-02-25 07:57:00,
2013-02-25 01:02:00,19.2,11.4,29.78,SW,225,0.0,0.0,72,0.00,,,0.00,LWC V2.10 B1813,2013-02-25 08:02:00,
2013-02-25 01:07:00,19.0,11.4,29.78,SW,225,0.0,0.0,72,0.00,,,0.00,LWC V2.10 B1813,2013-02-25 08:07:00,
2013-02-25 01:12:00,18.9,11.2,29.78,SW,225,0.0,0.0,72,0.00,,,0.00,LWC V2.10 B1813,2013-02-25 08:12:00,
2013-02-25 01:17:00,18.7,11.1,29.78,SW,225,0.0,0.0,72,0.00,,,0.00,LWC V2.10 B1813,2013-02-25 08:17:00,
2013-02-25 01:22:00,18.3,10.7,29.78,SW,225,0.0,0.0,72,0.00,,,0.00,LWC V2.10 B1813,2013-02-25 08:22:00,
2013-02-25 01:27:00,18.1,10.6,29.79,SW,225,0.0,0.0,72,0.00,,,0.00,LWC V2.10 B1813,2013-02-25 08:27:00,
2013-02-25 01:32:00,17.8,10.2,29.79,SW,225,0.0,0.0,72,0.00,,,0.00,LWC V2.10 B1813,2013-02-25 08:32:00,
2013-02-25 01:37:00,17.8,10.5,29.78,SW,225,0.0,0.0,73,0.00,,,0.00,LWC V2.10 B1813,2013-02-25 08:37:00,
2013-02-25 01:42:00,17.4,10.2,29.79,SW,225,0.0,0.0,73,0.00,,,0.00,LWC V2.10 B1813,2013-02-25 08:42:00,
2013-02-25 01:47:00,17.2,10.0,29.79,SW,225,0.0,0.0,73,0.00,,,0.00,LWC V2.10 B1813,2013-02-25 08:47:00,
2013-02-25 01:52:00,17.2,10.0,29.79,SW,225,0.0,0.0,73,0.00,,,0.00,LWC V2.10 B1813,2013-02-25 08:52:00,
2013-02-25 01:57:00,17.2,10.0,29.79,SW,225,0.0,0.0,73,0.00,,,0.00,LWC V2.10 B1813,2013-02-25 08:57:00,
2013-02-25 02:02:00,17.2,10.3,29.79,SW,225,0.0,0.0,74,0.00,,,0.00,LWC V2.10 B1813,2013-02-25 09:02:00,
2013-02-25 02:07:00,17.2,10.3,29.79,SW,225,0.0,0.0,74,0.00,,,0.00,LWC V2.10 B1813,2013-02-25 09:07:00,
2013-02-25 02:12:00,17.4,10.5,29.79,SW,225,0.0,0.0,74,0.00,,,0.00,LWC V2.10 B1813,2013-02-25 09:12:00,
2013-02-25 02:17:00,17.8,10.8,29.78,SW,225,0.0,0.0,74,0.00,,,0.00,LWC V2.10 B1813,2013-02-25 09:17:00,
2013-02-25 02:22:00,17.8,10.5,29.78,SW,225,0.0,0.0,73,0.00,,,0.00,LWC V2.10 B1813,2013-02-25 09:22:00,
2013-02-25 02:27:00,17.8,10.5,29.78,SW,225,0.0,0.0,73,0.00,,,0.00,LWC V2.10 B1813,2013-02-25 09:27:00,
2013-02-25 02:32:00,17.8,10.5,29.79,SW,225,0.0,0.0,73,0.00,,,0.00,LWC V2.10 B1813,2013-02-25 09:32:00,
2013-02-25 02:36:00,17.8,10.5,29.78,SW,225,0.0,0.0,73,0.00,,,0.00,LWC V2.10 B1813,2013-02-25 09:36:00,
2013-02-25 02:41:00,17.8,10.5,29.78,SW,225,0.0,0.0,73,0.00,,,0.00,LWC V2.10 B1813,2013-02-25 09:41:00,
2013-02-25 02:46:00,17.4,10.2,29.78,SW,225,0.0,0.0,73,0.00,,,0.00,LWC V2.10 B1813,2013-02-25 09:46:00,
2013-02-25 02:51:00,17.4,9.7,29.78,WSW,247,0.0,0.0,72,0.00,,,0.00,LWC V2.10 B1813,2013-02-25 09:51:00,
2013-02-25 02:56:00,16.9,9.4,29.78,WSW,247,0.0,0.0,72,0.00,,,0.00,LWC V2.10 B1813,2013-02-25 09:56:00,
2013-02-25 03:01:00,16.5,9.0,29.78,WNW,292,0.0,0.0,72,0.00,,,0.00,LWC V2.10 B1813,2013-02-25 10:01:00,
2013-02-25 03:06:00,16.3,8.8,29.77,WNW,292,0.0,0.0,72,0.00,,,0.00,LWC V2.10 B1813,2013-02-25 10:06:00,
2013-02-25 03:11:00,15.8,8.3,29.77,WNW,292,0.0,0.0,72,0.00,,,0.00,LWC V2.10 B1813,2013-02-25 10:11:00,
2013-02-25 03:16:00,15.6,8.1,29.77,WNW,292,0.0,0.0,72,0.00,,,0.00,LWC V2.10 B1813,2013-02-25 10:16:00,
2013-02-25 03:21:00,14.7,7.5,29.77,WNW,292,0.0,0.0,72,0.00,,,0.00,LWC V2.10 B1813,2013-02-25 10:21:00,
2013-02-25 03:26:00,14.5,7.1,29.77,WNW,292,0.0,0.0,72,0.00,,,0.00,LWC V2.10 B1813,2013-02-25 10:26:00,
2013-02-25 03:31:00,14.2,6.8,29.77,WNW,292,0.0,0.0,72,0.00,,,0.00,LWC V2.10 B1813,2013-02-25 10:31:00,
2013-02-25 03:36:00,13.8,6.8,29.77,West,270,0.0,0.0,73,0.00,,,0.00,LWC V2.10 B1813,2013-02-25 10:36:00,
2013-02-25 03:41:00,13.6,6.6,29.77,West,270,0.0,0.0,73,0.00,,,0.00,LWC V2.10 B1813,2013-02-25 10:41:00,
2013-02-25 03:46:00,13.3,6.2,29.76,West,270,0.0,0.0,73,0.00,,,0.00,LWC V2.10 B1813,2013-02-25 10:46:00,
2013-02-25 03:51:00,13.3,6.2,29.76,West,270,0.0,0.0,73,0.00,,,0.00,LWC V2.10 B1813,2013-02-25 10:51:00,
2013-02-25 03:56:00,12.7,5.7,29.76,West,270,0.0,0.0,73,0.00,,,0.00,LWC V2.10 B1813,2013-02-25 10:56:00,
2013-02-25 04:01:00,12.2,5.1,29.77,West,270,0.0,0.0,73,0.00,,,0.00,LWC V2.10 B1813,2013-02-25 11:01:00,
2013-02-25 04:06:00,12.0,4.8,29.76,West,270,0.0,0.0,73,0.00,,,0.00,LWC V2.10 B1813,2013-02-25 11:06:00,
2013-02-25 04:11:00,11.7,4.6,29.76,West,270,0.0,0.0,73,0.00,,,0.00,LWC V2.10 B1813,2013-02-25 11:11:00,
2013-02-25 04:16:00,11.5,4.7,29.76,West,270,0.0,0.0,74,0.00,,,0.00,LWC V2.10 B1813,2013-02-25 11:16:00,
2013-02-25 04:21:00,10.8,4.0,29.76,West,270,0.0,0.0,74,0.00,,,0.00,LWC V2.10 B1813,2013-02-25 11:21:00,
2013-02-25 04:26:00,10.2,3.5,29.77,West,270,0.0,0.0,74,0.00,,,0.00,LWC V2.10 B1813,2013-02-25 11:26:00,
2013-02-25 04:31:00,10.0,3.3,29.77,West,270,0.0,0.0,74,0.00,,,0.00,LWC V2.10 B1813,2013-02-25 11:31:00,
2013-02-25 04:36:00,9.7,3.0,29.77,West,270,0.0,0.0,74,0.00,,,0.00,LWC V2.10 B1813,2013-02-25 11:36:00,
2013-02-25 04:41:00,9.7,3.0,29.76,West,270,0.0,0.0,74,0.00,,,0.00,LWC V2.10 B1813,2013-02-25 11:41:00,
2013-02-25 04:46:00,9.7,3.3,29.77,West,270,0.0,0.0,75,0.00,,,0.00,LWC V2.10 B1813,2013-02-25 11:46:00,
2013-02-25 04:51:00,9.3,2.8,29.77,West,270,0.0,0.0,75,0.00,,,0.00,LWC V2.10 B1813,2013-02-25 11:51:00,
2013-02-25 04:56:00,9.3,2.9,29.77,West,270,0.0,0.0,75,0.00,,,0.00,LWC V2.10 B1813,2013-02-25 11:56:00,
2013-02-25 05:01:00,9.5,3.1,29.77,West,270,0.0,0.0,75,0.00,,,0.00,LWC V2.10 B1813,2013-02-25 12:01:00,
2013-02-25 05:06:00,9.7,3.3,29.77,West,270,0.0,0.0,75,0.00,,,0.00,LWC V2.10 B1813,2013-02-25 12:06:00,
2013-02-25 05:11:00,9.7,3.3,29.77,West,270,0.0,0.0,75,0.00,,,0.00,LWC V2.10 B1813,2013-02-25 12:11:00,
2013-02-25 05:16:00,9.5,3.1,29.77,West,270,0.0,0.0,75,0.00,,,0.00,LWC V2.10 B1813,2013-02-25 12:16:00,
2013-02-25 05:21:00,9.1,2.8,29.76,West,270,0.0,0.0,75,0.00,,,0.00,LWC V2.10 B1813,2013-02-25 12:21:00,
2013-02-25 05:26:00,8.8,2.5,29.76,West,270,0.0,0.0,75,0.00,,,0.00,LWC V2.10 B1813,2013-02-25 12:26:00,
2013-02-25 05:31:00,8.6,2.3,29.76,West,270,0.0,0.0,75,0.00,,,0.00,LWC V2.10 B1813,2013-02-25 12:31:00,
2013-02-25 05:36:00,8.4,2.4,29.76,West,270,0.0,0.0,76,0.00,,,0.00,LWC V2.10 B1813,2013-02-25 12:36:00,
2013-02-25 06:12:00,9.7,3.6,29.73,West,270,0.0,0.0,76,0.00,,,0.00,LWC V2.10 B1813,2013-02-25 13:12:00,
2013-02-25 06:17:00,9.9,3.7,29.73,West,270,0.0,0.0,76,0.00,,,0.00,LWC V2.10 B1813,2013-02-25 13:17:00,
2013-02-25 06:22:00,10.0,3.9,29.73,West,270,0.0,0.0,76,0.00,,,0.00,LWC V2.10 B1813,2013-02-25 13:22:00,
2013-02-25 06:27:00,9.7,3.3,29.73,WNW,292,0.0,0.0,75,0.00,,,0.00,LWC V2.10 B1813,2013-02-25 13:27:00,
2013-02-25 06:32:00,9.7,3.3,29.73,West,270,0.0,0.0,75,0.00,,,0.00,LWC V2.10 B1813,2013-02-25 13:32:00,
2013-02-25 06:37:00,9.3,2.9,29.73,West,270,0.0,0.0,75,0.00,,,0.00,LWC V2.10 B1813,2013-02-25 13:37:00,
2013-02-25 06:42:00,9.1,2.8,29.73,West,270,0.0,0.0,75,0.00,,,0.00,LWC V2.10 B1813,2013-02-25 13:42:00,
2013-02-25 06:47:00,9.0,2.6,29.73,West,270,0.0,0.0,75,0.00,,,0.00,LWC V2.10 B1813,2013-02-25 13:47:00,
2013-02-25 06:52:00,9.1,2.8,29.73,West,270,0.0,0.0,75,0.00,,,0.00,LWC V2.10 B1813,2013-02-25 13:52:00,
2013-02-25 06:57:00,9.1,2.8,29.72,West,270,0.0,0.0,75,0.00,,,0.00,LWC V2.10 B1813,2013-02-25 13:57:00,
2013-02-25 07:02:00,9.3,3.2,29.72,West,270,0.0,0.0,76,0.00,,,0.00,LWC V2.10 B1813,2013-02-25 14:02:00,
2013-02-25 07:07:00,9.5,3.4,29.73,West,270,0.0,0.0,76,0.00,,,0.00,LWC V2.10 B1813,2013-02-25 14:07:00,
2013-02-25 07:12:00,9.7,3.6,29.73,West,270,0.0,0.0,76,0.00,,,0.00,LWC V2.10 B1813,2013-02-25 14:12:00,
2013-02-25 07:17:00,9.7,3.6,29.73,West,270,0.0,0.0,76,0.00,,,0.00,LWC V2.10 B1813,2013-02-25 14:17:00,
2013-02-25 07:22:00,9.7,3.3,29.73,West,270,0.0,0.0,75,0.00,,,0.00,LWC V2.10 B1813,2013-02-25 14:22:00,
2013-02-25 07:27:00,9.3,2.9,29.73,West,270,0.0,0.0,75,0.00,,,0.00,LWC V2.10 B1813,2013-02-25 14:27:00,
2013-02-25 07:32:00,10.0,3.6,29.73,West,270,0.0,0.0,75,0.00,,,0.00,LWC V2.10 B1813,2013-02-25 14:32:00,
2013-02-25 07:37:00,10.6,4.4,29.73,West,270,0.0,0.0,76,0.00,,,0.00,LWC V2.10 B1813,2013-02-25 14:37:00,
2013-02-25 07:42:00,10.9,4.5,29.73,West,270,0.0,0.0,75,0.00,,,0.00,LWC V2.10 B1813,2013-02-25 14:42:00,
2013-02-25 07:47:00,11.1,4.6,29.74,SW,225,0.0,0.0,75,0.00,,,0.00,LWC V2.10 B1813,2013-02-25 14:47:00,
2013-02-25 07:52:00,11.1,4.6,29.74,SW,225,0.0,0.0,75,0.00,,,0.00,LWC V2.10 B1813,2013-02-25 14:52:00,
2013-02-25 07:57:00,11.7,5.2,29.74,WSW,247,0.0,0.0,75,0.00,,,0.00,LWC V2.10 B1813,2013-02-25 14:57:00,
2013-02-25 08:02:00,14.9,8.4,29.74,West,270,0.0,0.0,75,0.00,,,0.00,LWC V2.10 B1813,2013-02-25 15:02:00,
2013-02-25 08:07:00,16.7,9.8,29.74,West,270,0.0,0.0,74,0.00,,,0.00,LWC V2.10 B1813,2013-02-25 15:07:00,
2013-02-25 08:12:00,17.8,10.2,29.74,West,270,0.0,0.0,72,0.00,,,0.00,LWC V2.10 B1813,2013-02-25 15:12:00,
2013-02-25 08:17:00,19.9,12.0,29.74,West,270,0.0,0.0,71,0.00,,,0.00,LWC V2.10 B1813,2013-02-25 15:17:00,
2013-02-25 08:22:00,20.5,11.9,29.74,SW,225,0.0,0.0,69,0.00,,,0.00,LWC V2.10 B1813,2013-02-25 15:22:00,
2013-02-25 08:27:00,21.0,12.4,29.74,SW,225,0.0,0.0,68,0.00,,,0.00,LWC V2.10 B1813,2013-02-25 15:27:00,
2013-02-25 08:32:00,22.8,13.5,29.74,SW,225,0.0,0.0,67,0.00,,,0.00,LWC V2.10 B1813,2013-02-25 15:32:00,
2013-02-25 08:37:00,24.4,14.6,29.74,SW,225,0.0,0.0,66,0.00,,,0.00,LWC V2.10 B1813,2013-02-25 15:37:00,
2013-02-25 08:42:00,24.6,14.1,29.74,SW,225,0.0,0.0,64,0.00,,,0.00,LWC V2.10 B1813,2013-02-25 15:42:00,
2013-02-25 08:47:00,24.6,13.8,29.74,SW,225,0.0,0.0,63,0.00,,,0.00,LWC V2.10 B1813,2013-02-25 15:47:00,
2013-02-25 08:52:00,25.0,14.1,29.74,WSW,247,0.0,0.0,63,0.00,,,0.00,LWC V2.10 B1813,2013-02-25 15:52:00,
2013-02-25 08:57:00,25.5,13.8,29.73,North,0,0.0,0.0,62,0.00,,,0.00,LWC V2.10 B1813,2013-02-25 15:57:00,
2013-02-25 09:02:00,26.8,15.8,29.73,ESE,112,0.0,0.0,63,0.00,,,0.00,LWC V2.10 B1813,2013-02-25 16:02:00,
2013-02-25 09:07:00,28.0,16.7,29.72,ESE,112,0.0,0.0,62,0.00,,,0.00,LWC V2.10 B1813,2013-02-25 16:07:00,
2013-02-25 09:12:00,27.5,15.4,29.72,East,90,0.0,0.0,60,0.00,,,0.00,LWC V2.10 B1813,2013-02-25 16:12:00,
2013-02-25 09:17:00,27.7,16.0,29.72,SE,135,0.0,0.0,61,0.00,,,0.00,LWC V2.10 B1813,2013-02-25 16:17:00,
2013-02-25 09:22:00,28.8,16.7,29.72,SE,135,0.0,0.0,60,0.00,,,0.00,LWC V2.10 B1813,2013-02-25 16:22:00,
2013-02-25 09:27:00,30.6,18.3,29.72,SE,135,0.0,0.0,60,0.00,,,0.00,LWC V2.10 B1813,2013-02-25 16:27:00,
2013-02-25 09:32:00,31.6,19.0,29.72,SE,135,0.0,0.0,59,0.00,,,0.00,LWC V2.10 B1813,2013-02-25 16:32:00,
2013-02-25 09:37:00,31.8,18.7,29.72,SE,135,0.0,0.0,58,0.00,,,0.00,LWC V2.10 B1813,2013-02-25 16:37:00,
2013-02-25 09:42:00,32.7,19.1,29.72,SE,135,0.0,0.0,57,0.00,,,0.00,LWC V2.10 B1813,2013-02-25 16:42:00,
2013-02-25 09:47:00,32.4,18.8,29.72,SSE,157,0.0,0.0,57,0.00,,,0.00,LWC V2.10 B1813,2013-02-25 16:47:00,
2013-02-25 09:52:00,32.7,19.1,29.72,SE,135,0.0,0.0,57,0.00,,,0.00,LWC V2.10 B1813,2013-02-25 16:52:00,
2013-02-25 09:57:00,32.7,17.9,29.71,NE,45,0.0,0.0,56,0.00,,,0.00,LWC V2.10 B1813,2013-02-25 16:57:00,
2013-02-25 10:02:00,30.7,17.2,29.71,SE,135,0.0,0.0,57,0.00,,,0.00,LWC V2.10 B1813,2013-02-25 17:02:00,
2013-02-25 10:07:00,31.1,17.6,29.71,SE,135,0.0,0.0,57,0.00,,,0.00,LWC V2.10 B1813,2013-02-25 17:07:00,
2013-02-25 10:12:00,31.8,18.3,29.72,SSE,157,0.0,0.0,57,0.00,,,0.00,LWC V2.10 B1813,2013-02-25 17:12:00,
2013-02-25 10:17:00,31.6,18.1,29.72,ESE,112,0.0,0.0,57,0.00,,,0.00,LWC V2.10 B1813,2013-02-25 17:17:00,
2013-02-25 10:22:00,31.3,17.8,29.72,ENE,67,0.0,0.0,57,0.00,,,0.00,LWC V2.10 B1813,2013-02-25 17:22:00,
2013-02-25 10:28:00,31.8,18.3,29.72,SE,135,0.0,0.0,57,0.00,,,0.00,LWC V2.10 B1813,2013-02-25 17:28:00,
2013-02-25 10:33:00,32.2,18.6,29.72,NE,45,2.5,2.5,57,0.02,,,0.02,LWC V2.10 B1813,2013-02-25 17:33:00,
2013-02-25 10:38:00,32.2,18.6,29.73,ENE,67,0.0,0.0,56,0.02,,,0.02,LWC V2.10 B1813,2013-02-25 17:38:00,
2013-02-25 10:43:00,31.8,17.9,29.73,ESE,112,0.0,0.0,56,0.02,,,0.02,LWC V2.10 B1813,2013-02-25 17:43:00,
2013-02-25 10:48:00,31.5,17.9,29.72,SE,135,0.0,0.0,57,0.02,,,0.02,LWC V2.10 B1813,2013-02-25 17:48:00,
2013-02-25 10:53:00,30.9,17.6,29.72,NE,45,0.0,0.0,57,0.02,,,0.02,LWC V2.10 B1813,2013-02-25 17:53:00,
2013-02-25 10:58:00,30.4,16.9,29.72,NE,45,0.0,0.0,57,0.02,,,0.02,LWC V2.10 B1813,2013-02-25 17:58:00,
2013-02-25 11:03:00,29.7,16.2,29.72,NNE,22,0.0,0.0,57,0.02,,,0.02,LWC V2.10 B1813,2013-02-25 18:03:00,
2013-02-25 11:08:00,30.0,16.4,29.72,NE,45,0.0,0.0,57,0.04,,,0.04,LWC V2.10 B1813,2013-02-25 18:08:00,
2013-02-25 11:13:00,30.0,16.6,29.72,NE,45,5.1,5.1,57,0.04,,,0.04,LWC V2.10 B1813,2013-02-25 18:13:00,
2013-02-25 11:18:00,29.3,15.9,29.72,NNE,22,3.4,3.4,57,0.04,,,0.04,LWC V2.10 B1813,2013-02-25 18:18:00,
2013-02-25 11:23:00,30.0,17.4,29.72,East,90,0.0,0.0,58,0.04,,,0.04,LWC V2.10 B1813,2013-02-25 18:23:00,
2013-02-25 11:28:00,31.8,18.7,29.72,SE,135,0.0,0.0,58,0.02,,,0.04,LWC V2.10 B1813,2013-02-25 18:28:00,
2013-02-25 11:33:00,33.4,19.8,29.71,SSE,157,0.0,0.0,57,0.04,,,0.06,LWC V2.10 B1813,2013-02-25 18:33:00,
2013-02-25 11:38:00,34.2,20.0,29.71,SE,135,0.0,0.0,56,0.04,,,0.06,LWC V2.10 B1813,2013-02-25 18:38:00,
2013-02-25 11:43:00,34.5,19.5,29.71,SSE,157,0.0,0.0,54,0.04,,,0.06,LWC V2.10 B1813,2013-02-25 18:43:00,
2013-02-25 11:48:00,34.7,18.8,29.71,East,90,0.0,0.0,52,0.04,,,0.06,LWC V2.10 B1813,2013-02-25 18:48:00,
2013-02-25 11:53:00,34.5,18.5,29.71,NE,45,0.0,0.0,52,0.04,,,0.06,LWC V2.10 B1813,2013-02-25 18:53:00,
2013-02-25 11:58:00,33.3,17.9,29.70,NE,45,0.0,0.0,53,0.04,,,0.06,LWC V2.10 B1813,2013-02-25 18:58:00,
2013-02-25 12:03:00,33.4,17.6,29.70,NE,45,0.0,0.0,52,0.04,,,0.06,LWC V2.10 B1813,2013-02-25 19:03:00,
2013-02-25 12:08:00,34.3,18.9,29.69,SE,135,1.1,1.1,53,0.02,,,0.06,LWC V2.10 B1813,2013-02-25 19:08:00,
2013-02-25 12:13:00,35.2,19.8,29.70,SE,135,0.0,0.0,53,0.02,,,0.06,LWC V2.10 B1813,2013-02-25 19:13:00,
2013-02-25 12:18:00,35.8,19.9,29.69,SSE,157,4.2,4.2,52,0.02,,,0.06,LWC V2.10 B1813,2013-02-25 19:18:00,
2013-02-25 12:23:00,35.2,19.4,29.68,SE,135,0.0,5.8,52,0.02,,,0.06,LWC V2.10 B1813,2013-02-25 19:23:00,
2013-02-25 12:28:00,35.2,19.4,29.68,SE,135,0.0,0.0,52,0.00,,,0.06,LWC V2.10 B1813,2013-02-25 19:28:00,
2013-02-25 12:33:00,35.4,19.5,29.67,SE,135,0.0,0.0,52,0.00,,,0.06,LWC V2.10 B1813,2013-02-25 19:33:00,
2013-02-25 12:38:00,35.4,19.5,29.67,SE,135,2.7,2.7,52,0.00,,,0.06,LWC V2.10 B1813,2013-02-25 19:38:00,
2013-02-25 12:43:00,35.4,19.5,29.67,SSE,157,4.0,4.0,52,0.00,,,0.06,LWC V2.10 B1813,2013-02-25 19:43:00,
2013-02-25 12:48:00,35.4,19.1,29.67,NE,45,0.0,0.0,51,0.00,,,0.06,LWC V2.10 B1813,2013-02-25 19:48:00,
2013-02-25 12:53:00,35.8,19.9,29.66,SSE,157,2.0,2.0,52,0.00,,,0.06,LWC V2.10 B1813,2013-02-25 19:53:00,
2013-02-25 12:58:00,36.1,20.2,29.66,SSE,157,0.0,0.0,52,0.00,,,0.06,LWC V2.10 B1813,2013-02-25 19:58:00,
2013-02-25 13:03:00,36.7,19.8,29.66,NNE,22,0.0,0.0,50,0.00,,,0.06,LWC V2.10 B1813,2013-02-25 20:03:00,
2013-02-25 13:08:00,36.3,19.9,29.65,SE,135,0.0,0.0,51,0.00,,,0.06,LWC V2.10 B1813,2013-02-25 20:08:00,
2013-02-25 13:13:00,36.7,20.3,29.65,SSE,157,0.0,0.0,51,0.00,,,0.06,LWC V2.10 B1813,2013-02-25 20:13:00,
2013-02-25 13:18:00,36.9,20.0,29.65,East,90,0.0,0.0,50,0.00,,,0.06,LWC V2.10 B1813,2013-02-25 20:18:00,
2013-02-25 13:23:00,37.0,20.6,29.66,ESE,112,0.0,0.0,51,0.00,,,0.06,LWC V2.10 B1813,2013-02-25 20:23:00,
2013-02-25 13:28:00,37.0,20.6,29.65,ESE,112,0.0,0.0,51,0.00,,,0.06,LWC V2.10 B1813,2013-02-25 20:28:00,
2013-02-25 13:33:00,37.8,20.8,29.66,SE,135,0.0,0.0,50,0.00,,,0.06,LWC V2.10 B1813,2013-02-25 20:33:00,
2013-02-25 13:38:00,38.5,20.4,29.65,NNE,22,4.9,4.9,48,0.00,,,0.06,LWC V2.10 B1813,2013-02-25 20:38:00,
2013-02-25 13:43:00,36.9,19.5,29.65,SSE,157,0.0,0.0,49,0.00,,,0.06,LWC V2.10 B1813,2013-02-25 20:43:00,
2013-02-25 13:48:00,37.0,20.6,29.65,SSE,157,0.0,0.0,51,0.00,,,0.06,LWC V2.10 B1813,2013-02-25 20:48:00,
2013-02-25 13:53:00,35.2,18.5,29.65,NE,45,2.2,2.2,50,0.00,,,0.06,LWC V2.10 B1813,2013-02-25 20:53:00,
2013-02-25 13:58:00,35.2,19.4,29.64,SE,135,2.7,2.7,52,0.00,,,0.06,LWC V2.10 B1813,2013-02-25 20:58:00,
2013-02-25 14:03:00,36.1,19.3,29.64,NE,45,5.1,5.1,50,0.00,,,0.06,LWC V2.10 B1813,2013-02-25 21:03:00,
2013-02-25 14:08:00,36.7,20.3,29.64,SSW,202,2.0,2.0,51,0.00,,,0.06,LWC V2.10 B1813,2013-02-25 21:08:00,
2013-02-25 14:13:00,37.0,19.6,29.64,NE,45,0.0,0.0,49,0.00,,,0.06,LWC V2.10 B1813,2013-02-25 21:13:00,
2013-02-25 14:18:00,36.9,20.4,29.64,SSE,157,0.0,0.0,50,0.00,,,0.06,LWC V2.10 B1813,2013-02-25 21:18:00,
2013-02-25 14:23:00,37.2,20.3,29.64,SSE,157,0.0,3.6,50,0.00,,,0.06,LWC V2.10 B1813,2013-02-25 21:23:00,
2013-02-25 14:28:00,37.2,20.3,29.64,SW,225,0.0,0.0,50,0.00,,,0.06,LWC V2.10 B1813,2013-02-25 21:28:00,
2013-02-25 14:33:00,37.2,20.4,29.64,NE,45,0.0,0.0,49,0.00,,,0.06,LWC V2.10 B1813,2013-02-25 21:33:00,
2013-02-25 14:38:00,36.7,19.8,29.64,SW,225,0.0,0.0,50,0.00,,,0.06,LWC V2.10 B1813,2013-02-25 21:38:00,
2013-02-25 14:43:00,36.9,20.0,29.63,SW,225,6.0,6.0,50,0.00,,,0.06,LWC V2.10 B1813,2013-02-25 21:43:00,
2013-02-25 14:48:00,37.2,20.3,29.63,WSW,247,0.0,0.0,50,0.00,,,0.06,LWC V2.10 B1813,2013-02-25 21:48:00,
2013-02-25 14:53:00,37.2,20.3,29.63,WSW,247,4.0,4.0,50,0.00,,,0.06,LWC V2.10 B1813,2013-02-25 21:53:00,
2013-02-25 14:58:00,37.6,20.6,29.63,WSW,247,0.0,0.0,50,0.00,,,0.06,LWC V2.10 B1813,2013-02-25 21:58:00,
2013-02-25 15:03:00,38.3,21.4,29.62,WSW,247,3.6,3.6,50,0.00,,,0.06,LWC V2.10 B1813,2013-02-25 22:03:00,
2013-02-25 15:08:00,37.8,20.8,29.62,WSW,247,5.8,5.8,50,0.00,,,0.06,LWC V2.10 B1813,2013-02-25 22:08:00,
2013-02-25 15:13:00,37.9,21.0,29.62,WSW,247,6.0,6.0,50,0.00,,,0.06,LWC V2.10 B1813,2013-02-25 22:13:00,
2013-02-25 15:18:00,37.4,20.6,29.62,WSW,247,0.0,0.0,50,0.00,,,0.06,LWC V2.10 B1813,2013-02-25 22:18:00,
2013-02-25 15:23:00,37.6,21.1,29.61,WSW,247,0.0,2.0,51,0.00,,,0.06,LWC V2.10 B1813,2013-02-25 22:23:00,
2013-02-25 15:28:00,38.1,21.6,29.61,WSW,247,0.0,0.0,51,0.00,,,0.06,LWC V2.10 B1813,2013-02-25 22:28:00,
2013-02-25 15:33:00,37.8,20.8,29.61,WSW,247,0.0,1.6,50,0.00,,,0.06,LWC V2.10 B1813,2013-02-25 22:33:00,
2013-02-25 15:38:00,37.0,20.2,29.61,WSW,247,0.0,0.0,50,0.00,,,0.06,LWC V2.10 B1813,2013-02-25 22:38:00,
2013-02-25 15:43:00,36.9,20.4,29.62,WSW,247,0.0,0.0,51,0.00,,,0.06,LWC V2.10 B1813,2013-02-25 22:43:00,
2013-02-25 15:48:00,37.2,20.3,29.62,WSW,247,0.0,0.0,50,0.00,,,0.06,LWC V2.10 B1813,2013-02-25 22:48:00,
2013-02-25 15:53:00,36.7,20.3,29.62,WSW,247,0.0,0.0,51,0.00,,,0.06,LWC V2.10 B1813,2013-02-25 22:53:00,
2013-02-25 15:58:00,36.7,20.3,29.62,WSW,247,0.0,0.0,51,0.00,,,0.06,LWC V2.10 B1813,2013-02-25 22:58:00,
2013-02-25 16:03:00,36.3,19.5,29.62,WSW,247,0.0,0.0,50,0.00,,,0.06,LWC V2.10 B1813,2013-02-25 23:03:00,
2013-02-25 16:08:00,36.3,19.9,29.61,WSW,247,0.0,0.0,51,0.00,,,0.06,LWC V2.10 B1813,2013-02-25 23:08:00,
2013-02-25 16:13:00,36.3,19.9,29.61,WSW,247,0.0,0.0,51,0.00,,,0.06,LWC V2.10 B1813,2013-02-25 23:13:00,
2013-02-25 16:18:00,36.0,19.6,29.61,WSW,247,0.0,0.0,51,0.00,,,0.06,LWC V2.10 B1813,2013-02-25 23:18:00,
2013-02-25 16:23:00,35.8,19.9,29.60,WSW,247,0.0,0.0,52,0.00,,,0.06,LWC V2.10 B1813,2013-02-25 23:23:00,
2013-02-25 16:28:00,35.4,19.5,29.60,WSW,247,0.0,0.0,52,0.00,,,0.06,LWC V2.10 B1813,2013-02-25 23:28:00,
2013-02-25 16:33:00,35.4,19.5,29.60,WSW,247,0.0,0.0,52,0.00,,,0.06,LWC V2.10 B1813,2013-02-25 23:33:00,
2013-02-25 16:38:00,35.2,19.8,29.61,WSW,247,0.0,0.0,53,0.00,,,0.06,LWC V2.10 B1813,2013-02-25 23:38:00,
2013-02-25 16:43:00,34.9,19.4,29.60,WSW,247,0.0,0.0,53,0.00,,,0.06,LWC V2.10 B1813,2013-02-25 23:43:00,
2013-02-25 16:48:00,34.3,18.9,29.61,WSW,247,0.0,0.0,53,0.00,,,0.06,LWC V2.10 B1813,2013-02-25 23:48:00,
2013-02-25 16:53:00,34.0,19.0,29.61,WSW,247,0.0,0.0,54,0.00,,,0.06,LWC V2.10 B1813,2013-02-25 23:53:00,
2013-02-25 16:58:00,33.3,18.3,29.60,WSW,247,0.0,0.0,54,0.00,,,0.06,LWC V2.10 B1813,2013-02-25 23:58:00,
2013-02-25 17:03:00,32.2,17.8,29.60,WSW,247,0.0,0.0,55,0.00,,,0.06,LWC V2.10 B1813,2013-02-26 00:03:00,
2013-02-25 17:08:00,31.3,17.3,29.60,SE,135,0.0,0.0,56,0.00,,,0.06,LWC V2.10 B1813,2013-02-26 00:08:00,
2013-02-25 17:13:00,30.7,16.8,29.60,SE,135,0.0,0.0,56,0.00,,,0.06,LWC V2.10 B1813,2013-02-26 00:13:00,
2013-02-25 17:18:00,30.0,16.6,29.60,SE,135,0.0,0.0,57,0.00,,,0.06,LWC V2.10 B1813,2013-02-26 00:18:00,
2013-02-25 17:23:00,29.5,16.5,29.60,SE,135,0.0,0.0,58,0.00,,,0.06,LWC V2.10 B1813,2013-02-26 00:23:00,
2013-02-25 17:28:00,28.9,16.4,29.60,SE,135,0.0,0.0,59,0.00,,,0.06,LWC V2.10 B1813,2013-02-26 00:28:00,
2013-02-25 17:33:00,28.6,16.1,29.60,SE,135,0.0,0.0,59,0.00,,,0.06,LWC V2.10 B1813,2013-02-26 00:33:00,
2013-02-25 17:38:00,28.2,15.7,29.60,SE,135,0.0,0.0,59,0.00,,,0.06,LWC V2.10 B1813,2013-02-26 00:38:00,
2013-02-25 17:43:00,27.7,15.6,29.60,SE,135,0.0,0.0,60,0.00,,,0.06,LWC V2.10 B1813,2013-02-26 00:43:00,
2013-02-25 17:48:00,26.8,15.1,29.60,SE,135,0.0,0.0,61,0.00,,,0.06,LWC V2.10 B1813,2013-02-26 00:48:00,
2013-02-25 17:53:00,25.9,13.9,29.60,SE,135,0.0,0.0,60,0.00,,,0.06,LWC V2.10 B1813,2013-02-26 00:53:00,
2013-02-25 17:58:00,25.0,13.4,29.60,SE,135,0.0,0.0,61,0.00,,,0.06,LWC V2.10 B1813,2013-02-26 00:58:00,
2013-02-25 18:03:00,23.7,12.5,29.60,SE,135,0.0,0.0,62,0.00,,,0.06,LWC V2.10 B1813,2013-02-26 01:03:00,
2013-02-25 18:08:00,23.5,12.4,29.60,SE,135,0.0,0.0,62,0.00,,,0.06,LWC V2.10 B1813,2013-02-26 01:08:00,
2013-02-25 18:13:00,22.8,12.0,29.60,SE,135,0.0,0.0,63,0.00,,,0.06,LWC V2.10 B1813,2013-02-26 01:13:00,
2013-02-25 18:18:00,22.1,11.7,29.60,SE,135,0.0,0.0,64,0.00,,,0.06,LWC V2.10 B1813,2013-02-26 01:18:00,
2013-02-25 18:23:00,21.7,11.4,29.60,SE,135,0.0,0.0,64,0.00,,,0.06,LWC V2.10 B1813,2013-02-26 01:23:00,
2013-02-25 18:28:00,21.4,11.4,29.60,SE,135,0.0,0.0,65,0.00,,,0.06,LWC V2.10 B1813,2013-02-26 01:28:00,
2013-02-25 18:33:00,21.0,11.4,29.60,SE,135,0.0,0.0,66,0.00,,,0.06,LWC V2.10 B1813,2013-02-26 01:33:00,
2013-02-25 18:38:00,20.8,11.2,29.60,SE,135,0.0,0.0,66,0.00,,,0.06,LWC V2.10 B1813,2013-02-26 01:38:00,
2013-02-25 18:43:00,20.3,10.7,29.60,SE,135,0.0,0.0,66,0.00,,,0.06,LWC V2.10 B1813,2013-02-26 01:43:00,
2013-02-25 18:48:00,19.9,10.3,29.60,SE,135,0.0,0.0,66,0.00,,,0.06,LWC V2.10 B1813,2013-02-26 01:48:00,
2013-02-25 18:53:00,19.6,10.3,29.60,SE,135,0.0,0.0,67,0.00,,,0.06,LWC V2.10 B1813,2013-02-26 01:53:00,
2013-02-25 18:58:00,19.2,9.9,29.60,SE,135,0.0,0.0,67,0.00,,,0.06,LWC V2.10 B1813,2013-02-26 01:58:00,
2013-02-25 19:03:00,19.2,10.3,29.60,SE,135,0.0,0.0,68,0.00,,,0.06,LWC V2.10 B1813,2013-02-26 02:03:00,
2013-02-25 19:08:00,19.2,10.6,29.60,SE,135,0.0,0.0,69,0.00,,,0.06,LWC V2.10 B1813,2013-02-26 02:08:00,
2013-02-25 19:13:00,19.2,10.6,29.60,SE,135,0.0,0.0,69,0.00,,,0.06,LWC V2.10 B1813,2013-02-26 02:13:00,
2013-02-25 19:18:00,18.7,10.1,29.60,SE,135,0.0,0.0,69,0.00,,,0.06,LWC V2.10 B1813,2013-02-26 02:18:00,
2013-02-25 19:23:00,18.5,10.0,29.60,SE,135,0.0,0.0,69,0.00,,,0.06,LWC V2.10 B1813,2013-02-26 02:23:00,
2013-02-25 19:28:00,18.3,9.8,29.60,SE,135,0.0,0.0,69,0.00,,,0.06,LWC V2.10 B1813,2013-02-26 02:28:00,
2013-02-25 19:33:00,18.1,10.0,29.60,SE,135,0.0,0.0,70,0.00,,,0.06,LWC V2.10 B1813,2013-02-26 02:33:00,
2013-02-25 19:38:00,18.0,9.8,29.60,SE,135,0.0,0.0,70,0.00,,,0.06,LWC V2.10 B1813,2013-02-26 02:38:00,
2013-02-25 19:43:00,18.0,9.8,29.60,SE,135,0.0,0.0,70,0.00,,,0.06,LWC V2.10 B1813,2013-02-26 02:43:00,
2013-02-25 19:48:00,18.1,10.3,29.60,SSE,157,0.0,0.0,71,0.00,,,0.06,LWC V2.10 B1813,2013-02-26 02:48:00,
2013-02-25 19:53:00,18.3,10.7,29.60,South,180,0.0,0.0,72,0.00,,,0.06,LWC V2.10 B1813,2013-02-26 02:53:00,
2013-02-25 19:58:00,18.7,11.1,29.60,SW,225,0.0,0.0,72,0.00,,,0.06,LWC V2.10 B1813,2013-02-26 02:58:00,
2013-02-25 20:03:00,18.9,11.2,29.60,WSW,247,0.0,0.0,72,0.00,,,0.06,LWC V2.10 B1813,2013-02-26 03:03:00,
2013-02-25 20:08:00,19.0,11.4,29.59,WSW,247,0.0,0.0,72,0.00,,,0.06,LWC V2.10 B1813,2013-02-26 03:08:00,
2013-02-25 20:13:00,18.9,11.2,29.59,WSW,247,0.0,0.0,72,0.00,,,0.06,LWC V2.10 B1813,2013-02-26 03:13:00,
2013-02-25 20:18:00,19.2,11.6,29.60,WSW,247,0.0,0.0,72,0.00,,,0.06,LWC V2.10 B1813,2013-02-26 03:18:00,
2013-02-25 20:23:00,19.4,12.0,29.60,WSW,247,0.0,0.0,73,0.00,,,0.06,LWC V2.10 B1813,2013-02-26 03:23:00,
2013-02-25 20:28:00,19.6,12.2,29.59,West,270,0.0,0.0,73,0.00,,,0.06,LWC V2.10 B1813,2013-02-26 03:28:00,
2013-02-25 20:33:00,19.6,12.2,29.59,West,270,0.0,0.0,73,0.00,,,0.06,LWC V2.10 B1813,2013-02-26 03:33:00,
2013-02-25 20:38:00,19.4,12.0,29.59,West,270,0.0,0.0,73,0.00,,,0.06,LWC V2.10 B1813,2013-02-26 03:38:00,
2013-02-25 20:43:00,19.4,12.0,29.59,West,270,0.0,0.0,73,0.00,,,0.06,LWC V2.10 B1813,2013-02-26 03:43:00,
2013-02-25 20:48:00,19.2,11.9,29.59,West,270,0.0,0.0,73,0.00,,,0.06,LWC V2.10 B1813,2013-02-26 03:48:00,
2013-02-25 20:53:00,19.0,11.7,29.59,West,270,0.0,0.0,73,0.00,,,0.06,LWC V2.10 B1813,2013-02-26 03:53:00,
2013-02-25 20:58:00,18.7,11.4,29.59,West,270,0.0,0.0,73,0.00,,,0.06,LWC V2.10 B1813,2013-02-26 03:58:00,
2013-02-25 21:03:00,18.7,11.4,29.58,West,270,0.0,0.0,73,0.00,,,0.06,LWC V2.10 B1813,2013-02-26 04:03:00,
2013-02-25 21:08:00,18.5,10.9,29.59,West,270,0.0,0.0,72,0.00,,,0.06,LWC V2.10 B1813,2013-02-26 04:08:00,
2013-02-25 21:13:00,18.3,11.0,29.58,West,270,0.0,0.0,73,0.00,,,0.06,LWC V2.10 B1813,2013-02-26 04:13:00,
2013-02-25 21:18:00,18.3,10.7,29.58,West,270,0.0,0.0,72,0.00,,,0.06,LWC V2.10 B1813,2013-02-26 04:18:00,
2013-02-25 21:23:00,18.1,10.9,29.58,West,270,0.0,0.0,73,0.00,,,0.06,LWC V2.10 B1813,2013-02-26 04:23:00,
2013-02-25 21:28:00,17.2,10.2,29.59,West,270,0.0,0.0,72,0.00,,,0.06,LWC V2.10 B1813,2013-02-26 04:28:00,
2013-02-25 21:33:00,16.5,9.0,29.59,WSW,247,0.0,0.0,72,0.00,,,0.06,LWC V2.10 B1813,2013-02-26 04:33:00,
2013-02-25 21:38:00,15.8,8.3,29.59,WSW,247,0.0,0.0,72,0.00,,,0.06,LWC V2.10 B1813,2013-02-26 04:38:00,
2013-02-25 21:43:00,15.4,8.1,29.58,WSW,247,0.0,0.0,72,0.00,,,0.06,LWC V2.10 B1813,2013-02-26 04:43:00,
2013-02-25 21:48:00,15.1,7.6,29.59,WSW,247,0.0,0.0,72,0.00,,,0.06,LWC V2.10 B1813,2013-02-26 04:48:00,
2013-02-25 21:53:00,15.1,7.9,29.59,WSW,247,0.0,0.0,73,0.00,,,0.06,LWC V2.10 B1813,2013-02-26 04:53:00,
2013-02-25 21:58:00,14.7,7.6,29.58,WSW,247,0.0,0.0,73,0.00,,,0.06,LWC V2.10 B1813,2013-02-26 04:58:00,
2013-02-25 22:00:00,14.7,7.6,29.58,WSW,247,0.0,0.0,73,0.00,,,0.06,LWC V2.10 B1813,2013-02-26 05:00:00,
2013-02-25 22:05:00,14.5,7.4,29.58,WSW,247,0.0,0.0,73,0.00,,,0.06,LWC V2.10 B1813,2013-02-26 05:05:00,
2013-02-25 22:10:00,14.5,7.4,29.57,WSW,247,0.0,0.0,73,0.00,,,0.06,LWC V2.10 B1813,2013-02-26 05:10:00,
2013-02-25 22:15:00,14.9,8.1,29.58,WSW,247,0.0,0.0,74,0.00,,,0.06,LWC V2.10 B1813,2013-02-26 05:15:00,
2013-02-25 22:20:00,15.3,8.4,29.58,WSW,247,0.0,0.0,74,0.00,,,0.06,LWC V2.10 B1813,2013-02-26 05:20:00,
2013-02-25 22:25:00,16.0,9.4,29.57,WSW,247,0.0,0.0,75,0.00,,,0.06,LWC V2.10 B1813,2013-02-26 05:25:00,
2013-02-25 22:30:00,16.3,9.7,29.58,WSW,247,0.0,0.0,75,0.00,,,0.06,LWC V2.10 B1813,2013-02-26 05:30:00,
2013-02-25 22:35:00,16.3,9.4,29.58,WSW,247,0.0,0.0,74,0.00,,,0.06,LWC V2.10 B1813,2013-02-26 05:35:00,
2013-02-25 22:40:00,16.2,9.6,29.58,WSW,247,0.0,0.0,75,0.00,,,0.06,LWC V2.10 B1813,2013-02-26 05:40:00,
2013-02-25 22:45:00,15.3,8.4,29.57,WSW,247,0.0,0.0,74,0.00,,,0.06,LWC V2.10 B1813,2013-02-26 05:45:00,
2013-02-25 22:50:00,14.4,7.6,29.57,WSW,247,0.0,0.0,74,0.00,,,0.06,LWC V2.10 B1813,2013-02-26 05:50:00,
2013-02-25 22:52:00,14.2,7.4,29.57,WSW,247,0.0,0.0,74,0.00,,,0.06,LWC V2.10 B1813,2013-02-26 05:52:00,
2013-02-25 22:57:00,14.2,7.4,29.57,WSW,247,0.0,0.0,74,0.00,,,0.06,LWC V2.10 B1813,2013-02-26 05:57:00,
2013-02-25 23:02:00,13.8,7.1,29.56,WSW,247,0.0,0.0,74,0.00,,,0.06,LWC V2.10 B1813,2013-02-26 06:02:00,
2013-02-25 23:07:00,13.8,7.1,29.56,WSW,247,0.0,0.0,74,0.00,,,0.06,LWC V2.10 B1813,2013-02-26 06:07:00,
2013-02-25 23:12:00,13.8,7.1,29.56,WSW,247,0.0,0.0,74,0.00,,,0.06,LWC V2.10 B1813,2013-02-26 06:12:00,
2013-02-25 23:17:00,13.8,7.1,29.56,WSW,247,0.0,0.0,74,0.00,,,0.06,LWC V2.10 B1813,2013-02-26 06:17:00,
2013-02-25 23:22:00,13.8,7.3,29.56,WSW,247,0.0,0.0,75,0.00,,,0.06,LWC V2.10 B1813,2013-02-26 06:22:00,
2013-02-25 23:27:00,14.2,7.7,29.56,WSW,247,0.0,0.0,75,0.00,,,0.06,LWC V2.10 B1813,2013-02-26 06:27:00,
2013-02-25 23:32:00,14.7,8.2,29.55,WSW,247,0.0,0.0,75,0.00,,,0.06,LWC V2.10 B1813,2013-02-26 06:32:00,
2013-02-25 23:37:00,15.4,9.2,29.55,West,270,0.0,0.0,76,0.00,,,0.06,LWC V2.10 B1813,2013-02-26 06:37:00,
2013-02-25 23:42:00,15.6,9.4,29.55,West,270,0.0,0.0,76,0.00,,,0.06,LWC V2.10 B1813,2013-02-26 06:42:00,
2013-02-25 23:47:00,16.0,9.7,29.55,West,270,0.0,0.0,76,0.00,,,0.06,LWC V2.10 B1813,2013-02-26 06:47:00,
2013-02-25 23:52:00,16.3,10.0,29.55,West,270,0.0,0.0,76,0.00,,,0.06,LWC V2.10 B1813,2013-02-26 06:52:00,
2013-02-25 23:57:00,16.3,10.0,29.55,West,270,0.0,0.0,76,0.00,,,0.06,LWC V2.10 B1813,2013-02-26 06:57:00,